Last 6 Hours

AM-Scott Top 8120'

15 Minute Data | America/Los_Angeles
as of 5/8/26 6:57 AM PDT
Date & Time Temp (°F) RH (%) Dew Pt (°F) Wet Bulb (°F) Wind Dir (°) Wind Spd (mph) Wind Gust (mph) WindChill (°F) Daily Min Temp (°F) Daily Max Temp (°F)
5/8/26 - 0645 47.1 23 11.6 33.5 N | 352 8.2 15.2 43.5 44.8 49.4
5/8/26 - 0630 46.5 25 13.0 33.5 N | 356 8.1 13.5 42.4 44.8 49.4
5/8/26 - 0615 46.2 26 13.6 33.4 N | 2 8.4 12.6 41.3 44.8 49.4
5/8/26 - 0600 46.0 28 14.4 33.5 N | 355 8.8 14.8 40.8 44.8 49.4
5/8/26 - 0545 45.8 28 14.7 33.5 N | 359 8.4 14.5 40.6 44.8 49.4
5/8/26 - 0530 45.9 30 16.0 33.9 N | 354 8.5 13.9 42.5 44.8 49.4
5/8/26 - 0515 46.3 28 15.1 33.9 N | 354 9.8 15.7 42.0 44.8 49.4
5/8/26 - 0500 46.3 29 15.7 34.0 N | 355 8.9 15.1 41.9 44.8 49.4
5/8/26 - 0445 46.1 28 15.0 33.8 N | 354 8.4 15.2 41.6 44.8 49.4
5/8/26 - 0430 45.7 32 17.4 34.1 N | 0 9.8 15.3 42.2 44.8 49.4
5/8/26 - 0415 45.7 32 17.4 34.2 N | 2 9.3 15.7 39.0 44.8 49.4
5/8/26 - 0400 46.5 29 15.8 34.2 N | 1 8.3 15.7 42.7 44.8 49.4
5/8/26 - 0345 45.6 31 16.5 33.8 N | 356 8.2 12.0 41.7 44.8 49.4
5/8/26 - 0330 46.3 30 16.6 34.3 N | 358 9.2 14.8 41.9 44.8 49.4
5/8/26 - 0315 47.2 28 16.1 34.6 N | 6 9.5 15.2 42.4 44.8 49.4
5/8/26 - 0300 45.7 33 18.3 34.3 N | 360 6.7 11.5 42.1 45.2 49.4
5/8/26 - 0245 45.9 33 18.4 34.5 N | 3 6.0 10.1 42.5 45.3 49.4
5/8/26 - 0230 45.8 33 18.0 34.3 NNE | 18 4.4 8.7 42.9 45.5 49.4
5/8/26 - 0215 46.4 30 16.8 34.3 N | 8 4.5 9.6 44.3 45.9 49.4
5/8/26 - 0200 46.8 29 15.9 34.3 NNW | 346 4.6 9.0 44.2 46.8 49.4
5/8/26 - 0145 47.8 26 14.4 34.5 NW | 319 5.8 10.4 45.1 47.4 49.4
5/8/26 - 0130 49.4 21 11.5 34.7 NW | 321 7.2 10.6 47.7 47.4 49.4
5/8/26 - 0115 48.3 26 14.8 34.8 NNW | 336 8.0 10.8 45.1 47.4 49.0
5/8/26 - 0100 48.7 28 17.0 35.6 NNW | 333 8.5 11.3 45.0 47.4 49.0
Max 49.4 33 18.4 35.6 - 9.8 15.7 47.7 47.4 49.4
Avg 46.6 29 15.6 34.1 - 7.8 13.0 42.7 - -
Min 45.6 21 11.5 33.4 - 4.4 8.7 39.0 44.8 49.0